sensor_id;sensor_type;location;lat;lon;timestamp;pressure;altitude;pressure_sealevel;temperature;humidity
66524;BME280;53350;52.210;5.160;2024-02-16T00:00:57;100959.75;;;13.51;75.24
66524;BME280;53350;52.210;5.160;2024-02-16T00:03:23;100959.84;;;13.45;75.18
66524;BME280;53350;52.210;5.160;2024-02-16T00:05:50;100956.66;;;13.35;75.72
66524;BME280;53350;52.210;5.160;2024-02-16T00:08:17;100957.50;;;13.36;75.62
66524;BME280;53350;52.210;5.160;2024-02-16T00:10:45;100950.53;;;13.38;75.54
66524;BME280;53350;52.210;5.160;2024-02-16T00:13:11;100953.13;;;13.38;75.71
66524;BME280;53350;52.210;5.160;2024-02-16T00:15:38;100949.06;;;13.25;75.92
66524;BME280;53350;52.210;5.160;2024-02-16T00:18:04;100939.56;;;13.27;75.82
66524;BME280;53350;52.210;5.160;2024-02-16T00:20:31;100943.09;;;13.22;76.17
66524;BME280;53350;52.210;5.160;2024-02-16T00:22:57;100948.22;;;13.24;75.87
66524;BME280;53350;52.210;5.160;2024-02-16T00:25:25;100942.19;;;13.23;76.37
66524;BME280;53350;52.210;5.160;2024-02-16T00:27:52;100945.56;;;13.27;75.98
66524;BME280;53350;52.210;5.160;2024-02-16T00:30:19;100949.94;;;13.23;76.25
66524;BME280;53350;52.210;5.160;2024-02-16T00:32:45;100944.75;;;13.25;75.92
66524;BME280;53350;52.210;5.160;2024-02-16T00:35:12;100943.81;;;13.28;76.04
66524;BME280;53350;52.210;5.160;2024-02-16T00:37:38;100947.31;;;13.27;76.06
66524;BME280;53350;52.210;5.160;2024-02-16T00:40:05;100947.28;;;13.28;75.77
66524;BME280;53350;52.210;5.160;2024-02-16T00:42:31;100949.84;;;13.30;75.71
66524;BME280;53350;52.210;5.160;2024-02-16T00:44:59;100944.72;;;13.27;76.05
66524;BME280;53350;52.210;5.160;2024-02-16T00:47:25;100944.72;;;13.27;75.88
66524;BME280;53350;52.210;5.160;2024-02-16T00:49:52;100940.47;;;13.24;75.79
66524;BME280;53350;52.210;5.160;2024-02-16T00:52:18;100938.00;;;13.19;75.81
66524;BME280;53350;52.210;5.160;2024-02-16T00:54:44;100941.44;;;13.18;76.11
66524;BME280;53350;52.210;5.160;2024-02-16T00:57:11;100943.91;;;13.25;75.76
66524;BME280;53350;52.210;5.160;2024-02-16T00:59:39;100941.44;;;13.18;75.99
66524;BME280;53350;52.210;5.160;2024-02-16T01:02:07;100938.00;;;13.19;75.87
66524;BME280;53350;52.210;5.160;2024-02-16T01:04:35;100927.75;;;13.13;76.14
66524;BME280;53350;52.210;5.160;2024-02-16T01:07:01;100930.25;;;13.18;75.97
66524;BME280;53350;52.210;5.160;2024-02-16T01:09:28;100928.56;;;13.17;75.85
66524;BME280;53350;52.210;5.160;2024-02-16T01:11:54;100933.81;;;13.14;76.21
66524;BME280;53350;52.210;5.160;2024-02-16T01:14:20;100928.69;;;13.11;76.08
66524;BME280;53350;52.210;5.160;2024-02-16T01:16:47;100920.28;;;13.01;76.62
66524;BME280;53350;52.210;5.160;2024-02-16T01:19:14;100927.94;;;13.05;76.28
66524;BME280;53350;52.210;5.160;2024-02-16T01:21:42;100916.78;;;13.03;76.46
66524;BME280;53350;52.210;5.160;2024-02-16T01:24:12;100916.84;;;12.99;76.82
66524;BME280;53350;52.210;5.160;2024-02-16T01:26:38;100916.81;;;13.00;76.74
66524;BME280;53350;52.210;5.160;2024-02-16T01:29:04;100914.25;;;12.99;76.71
66524;BME280;53350;52.210;5.160;2024-02-16T01:31:31;100921.09;;;13.03;76.63
66524;BME280;53350;52.210;5.160;2024-02-16T01:33:58;100900.28;;;13.08;76.72
66524;BME280;53350;52.210;5.160;2024-02-16T01:36:26;100903.63;;;13.13;76.26
66524;BME280;53350;52.210;5.160;2024-02-16T01:38:52;100907.88;;;13.17;76.45
66524;BME280;53350;52.210;5.160;2024-02-16T01:41:18;100900.91;;;13.19;76.04
66524;BME280;53350;52.210;5.160;2024-02-16T01:43:45;100910.28;;;13.25;76.13
66524;BME280;53350;52.210;5.160;2024-02-16T01:46:11;100912.09;;;13.21;76.02
66524;BME280;53350;52.210;5.160;2024-02-16T01:48:37;100915.44;;;13.25;75.80
66524;BME280;53350;52.210;5.160;2024-02-16T01:51:04;100903.38;;;13.23;76.01
66524;BME280;53350;52.210;5.160;2024-02-16T01:53:34;100903.47;;;13.20;75.71
66524;BME280;53350;52.210;5.160;2024-02-16T01:56:01;100900.06;;;13.18;75.90
66524;BME280;53350;52.210;5.160;2024-02-16T01:58:28;100897.66;;;13.11;76.08
66524;BME280;53350;52.210;5.160;2024-02-16T02:00:54;100900.09;;;13.17;75.80
66524;BME280;53350;52.210;5.160;2024-02-16T02:03:20;100887.16;;;13.17;75.69
66524;BME280;53350;52.210;5.160;2024-02-16T02:05:48;100878.44;;;13.22;75.54
66524;BME280;53350;52.210;5.160;2024-02-16T02:08:15;100868.00;;;13.26;75.50
66524;BME280;53350;52.210;5.160;2024-02-16T02:10:43;100885.31;;;13.22;75.55
66524;BME280;53350;52.210;5.160;2024-02-16T02:13:09;100906.19;;;13.14;75.71
66524;BME280;53350;52.210;5.160;2024-02-16T02:15:35;100909.84;;;13.04;76.26
66524;BME280;53350;52.210;5.160;2024-02-16T02:18:02;100891.84;;;13.01;76.31
66524;BME280;53350;52.210;5.160;2024-02-16T02:20:29;100895.22;;;13.03;76.09
66524;BME280;53350;52.210;5.160;2024-02-16T02:22:57;100898.78;;;12.97;76.47
66524;BME280;53350;52.210;5.160;2024-02-16T02:25:23;100888.47;;;12.96;76.35
66524;BME280;53350;52.210;5.160;2024-02-16T02:27:51;100888.38;;;13.00;76.28
66524;BME280;53350;52.210;5.160;2024-02-16T02:30:18;100876.31;;;13.01;75.97
66524;BME280;53350;52.210;5.160;2024-02-16T02:32:46;100878.78;;;13.05;76.11
66524;BME280;53350;52.210;5.160;2024-02-16T02:35:12;100880.56;;;13.03;76.10
66524;BME280;53350;52.210;5.160;2024-02-16T02:37:39;100873.66;;;13.04;76.24
66524;BME280;53350;52.210;5.160;2024-02-16T02:40:08;100878.91;;;13.01;76.13
66524;BME280;53350;52.210;5.160;2024-02-16T02:42:36;100876.28;;;13.02;75.93
66524;BME280;53350;52.210;5.160;2024-02-16T02:45:03;100872.84;;;13.00;76.07
66524;BME280;53350;52.210;5.160;2024-02-16T02:47:31;100876.38;;;12.98;76.18
66524;BME280;53350;52.210;5.160;2024-02-16T02:49:57;100874.63;;;12.98;76.17
66524;BME280;53350;52.210;5.160;2024-02-16T02:52:23;100874.81;;;12.91;76.83
66524;BME280;53350;52.210;5.160;2024-02-16T02:54:50;100864.56;;;12.86;76.97
66524;BME280;53350;52.210;5.160;2024-02-16T02:57:17;100862.84;;;12.86;76.74
66524;BME280;53350;52.210;5.160;2024-02-16T02:59:43;100861.16;;;12.84;76.86
66524;BME280;53350;52.210;5.160;2024-02-16T03:02:10;100855.00;;;12.90;76.61
66524;BME280;53350;52.210;5.160;2024-02-16T03:04:36;100859.31;;;12.91;76.85
66524;BME280;53350;52.210;5.160;2024-02-16T03:07:03;100860.94;;;12.93;76.69
66524;BME280;53350;52.210;5.160;2024-02-16T03:09:29;100853.19;;;12.93;76.66
66524;BME280;53350;52.210;5.160;2024-02-16T03:11:55;100857.66;;;12.86;76.65
66524;BME280;53350;52.210;5.160;2024-02-16T03:14:23;100855.97;;;12.85;76.68
66524;BME280;53350;52.210;5.160;2024-02-16T03:16:49;100846.50;;;12.84;77.01
66524;BME280;53350;52.210;5.160;2024-02-16T03:19:15;100844.78;;;12.85;76.73
66524;BME280;53350;52.210;5.160;2024-02-16T03:21:42;100846.38;;;12.91;76.52
66524;BME280;53350;52.210;5.160;2024-02-16T03:24:09;100855.84;;;12.90;76.64
66524;BME280;53350;52.210;5.160;2024-02-16T03:26:35;100850.81;;;12.84;76.50
66524;BME280;53350;52.210;5.160;2024-02-16T03:29:01;100844.88;;;12.80;76.58
66524;BME280;53350;52.210;5.160;2024-02-16T03:31:29;100853.44;;;12.82;76.42
66524;BME280;53350;52.210;5.160;2024-02-16T03:33:55;100854.34;;;12.80;76.41
66524;BME280;53350;52.210;5.160;2024-02-16T03:36:23;100850.13;;;12.76;76.57
66524;BME280;53350;52.210;5.160;2024-02-16T03:38:49;100845.94;;;12.72;76.62
66524;BME280;53350;52.210;5.160;2024-02-16T03:41:17;100844.19;;;12.72;76.45
66524;BME280;53350;52.210;5.160;2024-02-16T03:43:44;100850.28;;;12.68;76.84
66524;BME280;53350;52.210;5.160;2024-02-16T03:46:10;100855.47;;;12.68;76.58
66524;BME280;53350;52.210;5.160;2024-02-16T03:48:38;100852.84;;;12.69;76.66
66524;BME280;53350;52.210;5.160;2024-02-16T03:51:05;100848.47;;;12.73;76.41
66524;BME280;53350;52.210;5.160;2024-02-16T03:53:32;100835.59;;;12.72;76.44
66524;BME280;53350;52.210;5.160;2024-02-16T03:55:58;100846.72;;;12.74;76.65
66524;BME280;53350;52.210;5.160;2024-02-16T03:58:24;100843.53;;;12.62;76.93
66524;BME280;53350;52.210;5.160;2024-02-16T04:00:51;100853.75;;;12.67;76.84
66524;BME280;53350;52.210;5.160;2024-02-16T04:03:18;100857.31;;;12.61;77.09
66524;BME280;53350;52.210;5.160;2024-02-16T04:05:46;100856.38;;;12.65;76.87
66524;BME280;53350;52.210;5.160;2024-02-16T04:08:12;100858.16;;;12.63;76.95
66524;BME280;53350;52.210;5.160;2024-02-16T04:10:39;100853.88;;;12.61;76.99
66524;BME280;53350;52.210;5.160;2024-02-16T04:13:05;100855.63;;;12.60;77.05
66524;BME280;53350;52.210;5.160;2024-02-16T04:15:31;100852.09;;;12.63;77.17
66524;BME280;53350;52.210;5.160;2024-02-16T04:17:57;100843.41;;;12.67;76.85
66524;BME280;53350;52.210;5.160;2024-02-16T04:20:24;100839.88;;;12.71;76.88
66524;BME280;53350;52.210;5.160;2024-02-16T04:22:52;100849.28;;;12.75;76.63
66524;BME280;53350;52.210;5.160;2024-02-16T04:25:18;100846.72;;;12.74;76.35
66524;BME280;53350;52.210;5.160;2024-02-16T04:27:44;100846.78;;;12.72;76.60
66524;BME280;53350;52.210;5.160;2024-02-16T04:30:11;100838.13;;;12.73;76.50
66524;BME280;53350;52.210;5.160;2024-02-16T04:32:37;100838.38;;;12.61;76.49
66524;BME280;53350;52.210;5.160;2024-02-16T04:35:04;100838.28;;;12.65;76.40
66524;BME280;53350;52.210;5.160;2024-02-16T04:37:30;100848.78;;;12.58;76.61
66524;BME280;53350;52.210;5.160;2024-02-16T04:39:58;100847.94;;;12.57;76.63
66524;BME280;53350;52.210;5.160;2024-02-16T04:42:24;100856.72;;;12.50;76.78
66524;BME280;53350;52.210;5.160;2024-02-16T04:44:51;100859.44;;;12.41;77.00
66524;BME280;53350;52.210;5.160;2024-02-16T04:47:17;100857.75;;;12.41;76.96
66524;BME280;53350;52.210;5.160;2024-02-16T04:49:44;100860.25;;;12.44;76.87
66524;BME280;53350;52.210;5.160;2024-02-16T04:52:10;100850.75;;;12.45;76.85
66524;BME280;53350;52.210;5.160;2024-02-16T04:54:37;100854.22;;;12.44;77.18
66524;BME280;53350;52.210;5.160;2024-02-16T04:57:06;100848.91;;;12.51;76.92
66524;BME280;53350;52.210;5.160;2024-02-16T04:59:33;100855.84;;;12.49;76.84
66524;BME280;53350;52.210;5.160;2024-02-16T05:01:59;100861.84;;;12.51;76.54
66524;BME280;53350;52.210;5.160;2024-02-16T05:04:25;100851.56;;;12.47;76.79
66524;BME280;53350;52.210;5.160;2024-02-16T05:06:52;100864.63;;;12.41;76.89
66524;BME280;53350;52.210;5.160;2024-02-16T05:09:22;100855.09;;;12.44;76.84
66524;BME280;53350;52.210;5.160;2024-02-16T05:11:50;100850.88;;;12.39;77.01
66524;BME280;53350;52.210;5.160;2024-02-16T05:14:17;100846.75;;;12.30;77.17
66524;BME280;53350;52.210;5.160;2024-02-16T05:16:44;100843.28;;;12.31;76.96
66524;BME280;53350;52.210;5.160;2024-02-16T05:19:10;100850.16;;;12.32;76.82
66524;BME280;53350;52.210;5.160;2024-02-16T05:21:37;100841.59;;;12.30;77.24
66524;BME280;53350;52.210;5.160;2024-02-16T05:24:03;100839.09;;;12.25;77.53
66524;BME280;53350;52.210;5.160;2024-02-16T05:26:30;100840.09;;;12.18;77.78
66524;BME280;53350;52.210;5.160;2024-02-16T05:28:56;100840.09;;;12.16;77.83
66524;BME280;53350;52.210;5.160;2024-02-16T05:31:24;100835.78;;;12.18;77.55
66524;BME280;53350;52.210;5.160;2024-02-16T05:33:50;100839.19;;;12.19;77.59
66524;BME280;53350;52.210;5.160;2024-02-16T05:36:17;100836.59;;;12.21;77.54
66524;BME280;53350;52.210;5.160;2024-02-16T05:38:45;100838.25;;;12.23;77.78
66524;BME280;53350;52.210;5.160;2024-02-16T05:41:11;100838.28;;;12.22;77.75
66524;BME280;53350;52.210;5.160;2024-02-16T05:43:38;100835.81;;;12.17;77.85
66524;BME280;53350;52.210;5.160;2024-02-16T05:46:04;100843.53;;;12.18;78.10
66524;BME280;53350;52.210;5.160;2024-02-16T05:48:33;100846.94;;;12.19;78.06
66524;BME280;53350;52.210;5.160;2024-02-16T05:51:02;100847.91;;;12.13;78.08
66524;BME280;53350;52.210;5.160;2024-02-16T05:53:30;100847.09;;;12.11;78.50
66524;BME280;53350;52.210;5.160;2024-02-16T05:55:56;100846.22;;;12.12;78.49
66524;BME280;53350;52.210;5.160;2024-02-16T05:58:23;100847.09;;;12.11;78.49
66524;BME280;53350;52.210;5.160;2024-02-16T06:00:49;100848.06;;;12.06;78.83
66524;BME280;53350;52.210;5.160;2024-02-16T06:03:16;100853.97;;;12.12;78.50
66524;BME280;53350;52.210;5.160;2024-02-16T06:05:43;100852.41;;;12.04;78.92
66524;BME280;53350;52.210;5.160;2024-02-16T06:08:10;100857.66;;;11.97;79.57
66524;BME280;53350;52.210;5.160;2024-02-16T06:10:36;100867.88;;;12.05;78.84
66524;BME280;53350;52.210;5.160;2024-02-16T06:13:03;100864.41;;;12.06;78.89
66524;BME280;53350;52.210;5.160;2024-02-16T06:15:29;100861.72;;;12.12;78.87
66524;BME280;53350;52.210;5.160;2024-02-16T06:17:55;100871.06;;;12.20;78.33
66524;BME280;53350;52.210;5.160;2024-02-16T06:20:22;100869.25;;;12.23;78.60
66524;BME280;53350;52.210;5.160;2024-02-16T06:22:50;100862.34;;;12.24;78.58
66524;BME280;53350;52.210;5.160;2024-02-16T06:25:16;100872.50;;;12.34;78.19
66524;BME280;53350;52.210;5.160;2024-02-16T06:27:42;100876.75;;;12.37;78.42
66524;BME280;53350;52.210;5.160;2024-02-16T06:30:09;100882.69;;;12.41;78.15
66524;BME280;53350;52.210;5.160;2024-02-16T06:32:38;100880.06;;;12.44;78.26
66524;BME280;53350;52.210;5.160;2024-02-16T06:35:04;100888.56;;;12.49;78.32
66524;BME280;53350;52.210;5.160;2024-02-16T06:37:32;100886.06;;;12.46;78.34
66524;BME280;53350;52.210;5.160;2024-02-16T06:40:00;100886.84;;;12.49;78.42
66524;BME280;53350;52.210;5.160;2024-02-16T06:42:26;100895.41;;;12.53;78.24
66524;BME280;53350;52.210;5.160;2024-02-16T06:44:53;100888.34;;;12.60;77.67
66524;BME280;53350;52.210;5.160;2024-02-16T06:47:19;100898.66;;;12.61;78.05
66524;BME280;53350;52.210;5.160;2024-02-16T06:49:45;100901.09;;;12.69;77.55
66524;BME280;53350;52.210;5.160;2024-02-16T06:52:12;100898.47;;;12.72;77.35
66524;BME280;53350;52.210;5.160;2024-02-16T06:54:38;100895.78;;;12.77;77.39
66524;BME280;53350;52.210;5.160;2024-02-16T06:57:06;100895.75;;;12.78;77.72
66524;BME280;53350;52.210;5.160;2024-02-16T06:59:32;100900.84;;;12.81;77.49
66524;BME280;53350;52.210;5.160;2024-02-16T07:01:58;100906.88;;;12.82;77.55
66524;BME280;53350;52.210;5.160;2024-02-16T07:04:25;100909.44;;;12.83;77.38
66524;BME280;53350;52.210;5.160;2024-02-16T07:06:51;100911.19;;;12.81;77.78
66524;BME280;53350;52.210;5.160;2024-02-16T07:09:17;100921.47;;;12.84;77.60
66524;BME280;53350;52.210;5.160;2024-02-16T07:11:43;100922.31;;;12.85;77.25
66524;BME280;53350;52.210;5.160;2024-02-16T07:14:12;100921.41;;;12.87;77.36
66524;BME280;53350;52.210;5.160;2024-02-16T07:16:39;100926.59;;;12.87;77.75
66524;BME280;53350;52.210;5.160;2024-02-16T07:19:05;100934.31;;;12.89;77.57
66524;BME280;53350;52.210;5.160;2024-02-16T07:21:31;100933.47;;;12.87;77.89
66524;BME280;53350;52.210;5.160;2024-02-16T07:23:58;100930.81;;;12.90;77.48
66524;BME280;53350;52.210;5.160;2024-02-16T07:26:24;100928.25;;;12.90;77.49
66524;BME280;53350;52.210;5.160;2024-02-16T07:28:50;100926.50;;;12.92;77.70
66524;BME280;53350;52.210;5.160;2024-02-16T07:31:18;100924.00;;;12.87;78.27
66524;BME280;53350;52.210;5.160;2024-02-16T07:33:44;100929.09;;;12.91;77.67
66524;BME280;53350;52.210;5.160;2024-02-16T07:36:11;100941.97;;;12.94;77.76
66524;BME280;53350;52.210;5.160;2024-02-16T07:38:39;100943.69;;;12.93;78.77
66524;BME280;53350;52.210;5.160;2024-02-16T07:41:05;100944.47;;;12.98;78.40
66524;BME280;53350;52.210;5.160;2024-02-16T07:43:32;100950.41;;;13.02;78.15
66524;BME280;53350;52.210;5.160;2024-02-16T07:45:58;100947.81;;;13.02;78.92
66524;BME280;53350;52.210;5.160;2024-02-16T07:48:26;100959.00;;;13.04;78.59
66524;BME280;53350;52.210;5.160;2024-02-16T07:50:53;100967.53;;;13.08;78.64
66524;BME280;53350;52.210;5.160;2024-02-16T07:53:20;100965.88;;;13.05;78.88
66524;BME280;53350;52.210;5.160;2024-02-16T07:55:46;100971.75;;;13.12;79.05
66524;BME280;53350;52.210;5.160;2024-02-16T07:58:12;100969.13;;;13.13;79.26
66524;BME280;53350;52.210;5.160;2024-02-16T08:00:39;100974.19;;;13.19;79.33
66524;BME280;53350;52.210;5.160;2024-02-16T08:03:05;100986.94;;;13.29;78.37
66524;BME280;53350;52.210;5.160;2024-02-16T08:05:33;100989.41;;;13.35;78.72
66524;BME280;53350;52.210;5.160;2024-02-16T08:07:59;100991.84;;;13.41;78.24
66524;BME280;53350;52.210;5.160;2024-02-16T08:10:25;100982.38;;;13.42;78.54
66524;BME280;53350;52.210;5.160;2024-02-16T08:12:52;100986.56;;;13.47;78.51
66524;BME280;53350;52.210;5.160;2024-02-16T08:15:18;100989.06;;;13.52;77.92
66524;BME280;53350;52.210;5.160;2024-02-16T08:17:48;100992.41;;;13.55;78.40
66524;BME280;53350;52.210;5.160;2024-02-16T08:20:14;100993.16;;;13.61;77.75
66524;BME280;53350;52.210;5.160;2024-02-16T08:22:42;100993.06;;;13.65;78.29
66524;BME280;53350;52.210;5.160;2024-02-16T08:25:08;100999.97;;;13.65;78.41
66524;BME280;53350;52.210;5.160;2024-02-16T08:27:35;101003.34;;;13.68;77.83
66524;BME280;53350;52.210;5.160;2024-02-16T08:30:03;101005.84;;;13.71;78.22
66524;BME280;53350;52.210;5.160;2024-02-16T08:32:29;101015.25;;;13.76;78.23
66524;BME280;53350;52.210;5.160;2024-02-16T08:34:56;101006.56;;;13.78;78.21
66524;BME280;53350;52.210;5.160;2024-02-16T08:37:23;101008.19;;;13.84;77.68
66524;BME280;53350;52.210;5.160;2024-02-16T08:39:51;101015.00;;;13.88;77.94
66524;BME280;53350;52.210;5.160;2024-02-16T08:42:17;101013.28;;;13.87;78.17
66524;BME280;53350;52.210;5.160;2024-02-16T08:44:44;101023.50;;;13.93;77.86
66524;BME280;53350;52.210;5.160;2024-02-16T08:47:10;101021.72;;;13.95;78.45
66524;BME280;53350;52.210;5.160;2024-02-16T08:49:36;101018.94;;;14.03;77.65
66524;BME280;53350;52.210;5.160;2024-02-16T08:52:05;101017.94;;;14.08;77.93
66524;BME280;53350;52.210;5.160;2024-02-16T08:54:32;101029.03;;;14.15;77.62
66524;BME280;53350;52.210;5.160;2024-02-16T08:56:59;101029.72;;;14.22;77.39
66524;BME280;53350;52.210;5.160;2024-02-16T08:59:26;101030.50;;;14.25;77.70
66524;BME280;53350;52.210;5.160;2024-02-16T09:01:53;101032.94;;;14.32;77.05
66524;BME280;53350;52.210;5.160;2024-02-16T09:04:20;101044.09;;;14.34;77.38
66524;BME280;53350;52.210;5.160;2024-02-16T09:06:46;101052.63;;;14.39;77.18
66524;BME280;53350;52.210;5.160;2024-02-16T09:09:14;101046.56;;;14.40;76.97
66524;BME280;53350;52.210;5.160;2024-02-16T09:11:40;101046.53;;;14.41;77.04
66524;BME280;53350;52.210;5.160;2024-02-16T09:14:08;101058.56;;;14.44;76.77
66524;BME280;53350;52.210;5.160;2024-02-16T09:16:34;101068.03;;;14.45;77.18
66524;BME280;53350;52.210;5.160;2024-02-16T09:19:01;101076.63;;;14.47;76.94
66524;BME280;53350;52.210;5.160;2024-02-16T09:21:27;101079.97;;;14.51;76.92
66524;BME280;53350;52.210;5.160;2024-02-16T09:23:55;101078.28;;;14.50;77.04
66524;BME280;53350;52.210;5.160;2024-02-16T09:26:23;101092.06;;;14.52;77.04
66524;BME280;53350;52.210;5.160;2024-02-16T09:28:50;101089.47;;;14.52;76.99
66524;BME280;53350;52.210;5.160;2024-02-16T09:31:17;101087.75;;;14.51;77.49
66524;BME280;53350;52.210;5.160;2024-02-16T09:33:44;101096.41;;;14.51;77.33
66524;BME280;53350;52.210;5.160;2024-02-16T09:36:10;101098.09;;;14.52;77.40
66524;BME280;53350;52.210;5.160;2024-02-16T09:38:36;101104.97;;;14.53;77.62
66524;BME280;53350;52.210;5.160;2024-02-16T09:41:03;101116.19;;;14.54;77.47
66524;BME280;53350;52.210;5.160;2024-02-16T09:43:29;101110.09;;;14.56;77.35
66524;BME280;53350;52.210;5.160;2024-02-16T09:45:56;101114.31;;;14.60;77.25
66524;BME280;53350;52.210;5.160;2024-02-16T09:48:24;101112.56;;;14.63;77.02
66524;BME280;53350;52.210;5.160;2024-02-16T09:50:51;101109.97;;;14.61;77.42
66524;BME280;53350;52.210;5.160;2024-02-16T09:53:19;101128.97;;;14.63;77.34
66524;BME280;53350;52.210;5.160;2024-02-16T09:55:46;101134.25;;;14.57;77.74
66524;BME280;53350;52.210;5.160;2024-02-16T09:58:13;101133.28;;;14.61;77.49
66524;BME280;53350;52.210;5.160;2024-02-16T10:00:42;101136.94;;;14.54;78.24
66524;BME280;53350;52.210;5.160;2024-02-16T10:03:20;101145.63;;;14.53;77.84
66524;BME280;53350;52.210;5.160;2024-02-16T10:05:49;101140.38;;;14.54;78.05
66524;BME280;53350;52.210;5.160;2024-02-16T10:08:16;101164.59;;;14.53;78.14
66524;BME280;53350;52.210;5.160;2024-02-16T10:10:42;101169.72;;;14.56;77.82
66524;BME280;53350;52.210;5.160;2024-02-16T10:13:08;101178.38;;;14.55;78.00
66524;BME280;53350;52.210;5.160;2024-02-16T10:15:36;101180.25;;;14.49;78.23
66524;BME280;53350;52.210;5.160;2024-02-16T10:18:03;101180.25;;;14.49;78.51
66524;BME280;53350;52.210;5.160;2024-02-16T10:20:30;101183.75;;;14.48;78.59
66524;BME280;53350;52.210;5.160;2024-02-16T10:23:04;101184.63;;;14.47;78.91
66524;BME280;53350;52.210;5.160;2024-02-16T10:25:31;101194.31;;;14.38;79.93
66524;BME280;53350;52.210;5.160;2024-02-16T10:27:57;101205.53;;;14.39;79.40
66524;BME280;53350;52.210;5.160;2024-02-16T10:30:25;101213.31;;;14.39;80.08
66524;BME280;53350;52.210;5.160;2024-02-16T10:32:55;101225.47;;;14.37;80.75
66524;BME280;53350;52.210;5.160;2024-02-16T10:35:21;101230.69;;;14.35;80.84
66524;BME280;53350;52.210;5.160;2024-02-16T10:37:47;101245.47;;;14.30;81.16
66524;BME280;53350;52.210;5.160;2024-02-16T10:40:15;101252.47;;;14.25;81.64
66524;BME280;53350;52.210;5.160;2024-02-16T10:42:43;101262.06;;;14.21;81.97
66524;BME280;53350;52.210;5.160;2024-02-16T10:45:11;101268.19;;;14.17;82.36
66524;BME280;53350;52.210;5.160;2024-02-16T10:47:38;101271.72;;;14.13;83.01
66524;BME280;53350;52.210;5.160;2024-02-16T10:50:05;101275.31;;;14.06;83.45
66524;BME280;53350;52.210;5.160;2024-02-16T10:52:32;101271.13;;;13.99;83.66
66524;BME280;53350;52.210;5.160;2024-02-16T10:55:00;101278.91;;;13.99;84.34
66524;BME280;53350;52.210;5.160;2024-02-16T10:57:28;101287.56;;;13.98;84.79
66524;BME280;53350;52.210;5.160;2024-02-16T10:59:56;101279.84;;;13.95;85.05
66524;BME280;53350;52.210;5.160;2024-02-16T11:02:24;101274.72;;;13.91;85.48
66524;BME280;53350;52.210;5.160;2024-02-16T11:04:51;101277.34;;;13.90;85.59
66524;BME280;53350;52.210;5.160;2024-02-16T11:07:18;101272.28;;;13.84;84.96
66524;BME280;53350;52.210;5.160;2024-02-16T11:09:45;101286.97;;;13.83;85.30
66524;BME280;53350;52.210;5.160;2024-02-16T11:12:12;101282.63;;;13.85;86.42
66524;BME280;53350;52.210;5.160;2024-02-16T11:14:42;101295.53;;;13.87;85.88
66524;BME280;53350;52.210;5.160;2024-02-16T11:17:08;101307.50;;;13.93;86.78
66524;BME280;53350;52.210;5.160;2024-02-16T11:19:35;101300.56;;;13.95;86.69
66524;BME280;53350;52.210;5.160;2024-02-16T11:22:03;101304.03;;;13.95;86.60
66524;BME280;53350;52.210;5.160;2024-02-16T11:24:32;101298.88;;;13.94;86.22
66524;BME280;53350;52.210;5.160;2024-02-16T11:27:00;101299.69;;;13.96;86.44
66524;BME280;53350;52.210;5.160;2024-02-16T11:29:28;101297.94;;;13.98;86.98
66524;BME280;53350;52.210;5.160;2024-02-16T11:31:58;101292.78;;;13.95;86.81
66524;BME280;53350;52.210;5.160;2024-02-16T11:34:24;101295.38;;;13.96;86.20
66524;BME280;53350;52.210;5.160;2024-02-16T11:36:51;101306.53;;;14.00;86.59
66524;BME280;53350;52.210;5.160;2024-02-16T11:39:18;101319.41;;;14.03;86.87
66524;BME280;53350;52.210;5.160;2024-02-16T11:41:45;101335.75;;;14.06;86.81
66524;BME280;53350;52.210;5.160;2024-02-16T11:44:12;101343.56;;;14.05;86.54
66524;BME280;53350;52.210;5.160;2024-02-16T11:46:41;101344.44;;;14.04;86.31
66524;BME280;53350;52.210;5.160;2024-02-16T11:49:08;101348.78;;;14.02;86.59
66524;BME280;53350;52.210;5.160;2024-02-16T11:51:35;101366.06;;;14.01;85.90
66524;BME280;53350;52.210;5.160;2024-02-16T11:54:02;101364.44;;;13.96;85.90
66524;BME280;53350;52.210;5.160;2024-02-16T11:56:28;101368.06;;;13.85;86.31
66524;BME280;53350;52.210;5.160;2024-02-16T11:58:55;101375.94;;;13.81;86.61
66524;BME280;53350;52.210;5.160;2024-02-16T12:01:22;101381.94;;;13.81;86.29
66524;BME280;53350;52.210;5.160;2024-02-16T12:03:49;101377.75;;;13.74;86.49
66524;BME280;53350;52.210;5.160;2024-02-16T12:06:20;101380.47;;;13.66;86.63
66524;BME280;53350;52.210;5.160;2024-02-16T12:08:47;101386.69;;;13.56;87.23
66524;BME280;53350;52.210;5.160;2024-02-16T12:11:13;101400.47;;;13.56;87.47
66524;BME280;53350;52.210;5.160;2024-02-16T12:13:40;101406.56;;;13.52;87.54
66524;BME280;53350;52.210;5.160;2024-02-16T12:16:06;101413.56;;;13.47;87.94
66524;BME280;53350;52.210;5.160;2024-02-16T12:18:32;101419.69;;;13.42;88.22
66524;BME280;53350;52.210;5.160;2024-02-16T12:20:59;101425.72;;;13.42;88.31
66524;BME280;53350;52.210;5.160;2024-02-16T12:23:27;101426.63;;;13.38;88.35
66524;BME280;53350;52.210;5.160;2024-02-16T12:25:55;101424.06;;;13.36;88.63
66524;BME280;53350;52.210;5.160;2024-02-16T12:28:23;101418.84;;;13.38;88.90
66524;BME280;53350;52.210;5.160;2024-02-16T12:30:50;101423.16;;;13.41;89.12
66524;BME280;53350;52.210;5.160;2024-02-16T12:33:16;101419.63;;;13.45;89.46
66524;BME280;53350;52.210;5.160;2024-02-16T12:35:42;101421.25;;;13.52;89.71
66524;BME280;53350;52.210;5.160;2024-02-16T12:38:09;101430.69;;;13.56;89.18
66524;BME280;53350;52.210;5.160;2024-02-16T12:40:37;101433.19;;;13.61;88.99
66524;BME280;53350;52.210;5.160;2024-02-16T12:43:03;101438.31;;;13.64;88.48
66524;BME280;53350;52.210;5.160;2024-02-16T12:45:29;101451.28;;;13.64;89.19
66524;BME280;53350;52.210;5.160;2024-02-16T12:47:56;101455.47;;;13.71;89.07